Time;durP1;ratioP1;P1;durP2;ratioP2;P2;SDS_P1;SDS_P2;PMS_P1;PMS_P2;Temp;Humidity;BMP_temperature;BMP_pressure;BME280_temperature;BME280_humidity;BME280_pressure;Samples;Min_cycle;Max_cycle;Signal;HPM_P1;HPM_P2
2023/07/18 00:00:25;;;;;;;3.30;0.90;;;18.90;89.10;;;;;;5074924;28;20116;-73
2023/07/18 00:02:51;;;;;;;3.25;1.08;;;18.80;89.50;;;;;;5074652;28;20029;-73
2023/07/18 00:05:17;;;;;;;4.53;0.90;;;18.90;89.40;;;;;;5074766;28;20078;-73
2023/07/18 00:07:44;;;;;;;4.43;0.95;;;19.00;88.90;;;;;;5074790;28;20381;-74
2023/07/18 00:10:11;;;;;;;5.35;0.77;;;19.00;88.90;;;;;;5074577;28;20021;-73
2023/07/18 00:12:38;;;;;;;3.40;1.20;;;18.90;89.50;;;;;;5075158;28;20040;-74
2023/07/18 00:15:05;;;;;;;3.55;0.82;;;18.80;90.00;;;;;;5074395;28;20025;-73
2023/07/18 00:17:33;;;;;;;4.05;0.85;;;18.70;90.10;;;;;;5074402;28;20043;-73
2023/07/18 00:20:00;;;;;;;3.38;1.10;;;18.70;90.00;;;;;;5073951;28;20013;-73
2023/07/18 00:22:26;;;;;;;2.38;0.73;;;18.80;89.40;;;;;;5074195;28;20052;-74
2023/07/18 00:24:51;;;;;;;3.45;1.15;;;18.80;90.00;;;;;;5074318;28;20043;-74
2023/07/18 00:27:17;;;;;;;2.63;0.80;;;18.80;89.90;;;;;;5074229;28;20052;-73
2023/07/18 00:29:43;;;;;;;3.60;0.95;;;18.70;90.00;;;;;;5074323;28;20032;-73
2023/07/18 00:32:09;;;;;;;4.95;1.10;;;18.80;90.00;;;;;;5074296;28;20025;-73
2023/07/18 00:34:35;;;;;;;7.22;1.10;;;18.70;90.10;;;;;;5074300;28;20087;-73
2023/07/18 00:37:01;;;;;;;3.85;1.08;;;18.70;90.10;;;;;;5073729;28;20029;-74
2023/07/18 00:39:27;;;;;;;3.92;1.10;;;18.70;90.00;;;;;;5056261;28;20405;-74
2023/07/18 00:41:52;;;;;;;3.35;1.38;;;18.70;90.00;;;;;;5073673;28;20033;-74
2023/07/18 00:44:18;;;;;;;1.92;0.70;;;18.60;90.10;;;;;;5074034;28;20036;-73
2023/07/18 00:46:44;;;;;;;3.83;1.25;;;18.60;90.20;;;;;;5073805;28;20024;-74
2023/07/18 00:49:11;;;;;;;4.97;1.10;;;18.60;90.30;;;;;;5073960;28;20052;-74
2023/07/18 00:51:36;;;;;;;3.95;0.90;;;18.50;90.50;;;;;;5073436;28;20028;-74
2023/07/18 00:54:03;;;;;;;3.08;1.00;;;18.50;90.20;;;;;;5073908;28;20031;-73
2023/07/18 00:56:28;;;;;;;2.15;0.77;;;18.40;90.60;;;;;;5073680;28;20533;-73
2023/07/18 00:58:54;;;;;;;4.25;1.10;;;18.40;90.50;;;;;;5073753;28;20112;-73
2023/07/18 01:01:20;;;;;;;4.38;0.82;;;18.40;90.80;;;;;;5073647;28;20028;-74
2023/07/18 01:03:46;;;;;;;4.43;0.80;;;18.40;90.50;;;;;;5073740;28;20401;-73
2023/07/18 01:06:12;;;;;;;2.80;0.82;;;18.40;90.40;;;;;;5073171;28;20086;-73
2023/07/18 01:08:40;;;;;;;6.53;1.00;;;18.40;90.60;;;;;;5073718;28;20039;-74
2023/07/18 01:11:07;;;;;;;6.15;1.23;;;18.50;90.50;;;;;;5073199;28;20169;-74
2023/07/18 01:13:34;;;;;;;4.30;0.95;;;18.40;90.60;;;;;;5073593;28;20035;-73
2023/07/18 01:16:00;;;;;;;2.85;1.00;;;18.30;90.70;;;;;;5055611;28;20025;-74
2023/07/18 01:18:25;;;;;;;4.57;1.05;;;18.30;90.90;;;;;;5073497;28;20078;-74
2023/07/18 01:20:52;;;;;;;3.42;0.88;;;18.30;90.80;;;;;;5073029;28;20028;-74
2023/07/18 01:23:18;;;;;;;3.00;0.88;;;18.20;90.90;;;;;;5073430;28;20055;-73
2023/07/18 01:25:50;;;;;;;3.53;0.80;;;18.20;90.90;;;;;;5073428;28;20028;-74
2023/07/18 01:28:15;;;;;;;2.75;0.90;;;18.20;90.70;;;;;;5073400;28;20048;-74
2023/07/18 01:30:41;;;;;;;3.05;1.05;;;18.00;91.10;;;;;;5073035;28;20029;-73
2023/07/18 01:33:06;;;;;;;4.15;1.20;;;18.10;91.00;;;;;;5055103;28;20031;-73
2023/07/18 01:35:32;;;;;;;4.22;1.38;;;18.10;90.90;;;;;;5055057;28;20024;-73
2023/07/18 01:37:58;;;;;;;4.65;0.70;;;17.90;91.30;;;;;;5073087;28;20162;-73
2023/07/18 01:40:24;;;;;;;4.40;1.65;;;17.90;91.40;;;;;;5073319;28;20060;-73
2023/07/18 01:42:51;;;;;;;2.88;1.05;;;17.90;91.40;;;;;;5054948;28;20036;-74
2023/07/18 01:45:21;;;;;;;2.08;0.98;;;17.90;91.30;;;;;;5073060;28;20033;-74
2023/07/18 01:47:48;;;;;;;3.58;1.15;;;17.90;91.20;;;;;;5073113;28;20029;-73
2023/07/18 01:50:14;;;;;;;5.57;1.15;;;17.90;91.30;;;;;;5072776;28;20147;-73
2023/07/18 01:52:39;;;;;;;1.70;0.88;;;17.90;91.20;;;;;;5072988;28;20493;-73
2023/07/18 01:55:05;;;;;;;5.05;1.15;;;17.90;91.10;;;;;;5072923;28;20016;-73
2023/07/18 01:57:38;;;;;;;3.60;0.95;;;17.80;91.40;;;;;;5072942;28;20059;-73
2023/07/18 02:00:04;;;;;;;;;;;17.70;91.50;;;;;;5065022;28;20179;-73
2023/07/18 02:02:30;;;;;;;5.20;1.35;;;17.70;91.70;;;;;;5047334;28;20423;-73
2023/07/18 02:04:57;;;;;;;4.15;1.25;;;17.80;91.40;;;;;;5033730;28;20025;-73
2023/07/18 02:07:22;;;;;;;5.30;1.08;;;17.80;91.40;;;;;;5050039;28;20462;-73
2023/07/18 02:09:49;;;;;;;4.05;0.88;;;17.80;91.30;;;;;;5052946;28;20028;-73
2023/07/18 02:12:15;;;;;;;5.50;0.95;;;17.80;91.30;;;;;;5052744;28;20052;-75
2023/07/18 02:14:41;;;;;;;5.00;1.30;;;17.70;91.50;;;;;;5052966;28;20037;-73
2023/07/18 02:17:08;;;;;;;6.18;1.00;;;17.80;91.40;;;;;;5052695;28;20018;-73
2023/07/18 02:19:35;;;;;;;6.18;1.40;;;17.60;91.70;;;;;;5052650;28;20700;-73
2023/07/18 02:22:01;;;;;;;4.00;1.23;;;17.60;91.70;;;;;;5052552;28;20421;-73
2023/07/18 02:24:27;;;;;;;7.90;1.38;;;17.60;91.70;;;;;;5053122;28;20100;-73
2023/07/18 02:26:54;;;;;;;5.03;1.08;;;17.60;91.70;;;;;;5052769;28;20095;-73
2023/07/18 02:29:20;;;;;;;6.10;0.98;;;17.70;91.90;;;;;;5052617;28;20021;-73
2023/07/18 02:31:46;;;;;;;2.65;1.02;;;17.70;91.50;;;;;;5052421;28;20036;-73
2023/07/18 02:34:11;;;;;;;5.15;0.85;;;17.70;91.40;;;;;;5052472;28;20029;-74
2023/07/18 02:36:37;;;;;;;4.65;1.02;;;17.60;91.50;;;;;;5052533;28;20075;-74
2023/07/18 02:39:07;;;;;;;3.28;1.02;;;17.70;91.60;;;;;;5052498;28;20020;-73
2023/07/18 02:41:32;;;;;;;5.15;1.05;;;17.60;91.70;;;;;;5053592;28;20029;-74
2023/07/18 02:43:58;;;;;;;6.15;0.82;;;17.50;91.80;;;;;;5056272;28;20094;-73
2023/07/18 02:46:23;;;;;;;5.28;1.20;;;17.60;91.90;;;;;;5055987;28;20032;-73
2023/07/18 02:48:49;;;;;;;5.00;1.02;;;17.50;91.80;;;;;;5038364;28;20029;-75
2023/07/18 02:51:15;;;;;;;3.95;1.05;;;17.50;91.90;;;;;;5055868;28;20037;-73
2023/07/18 02:53:40;;;;;;;5.53;1.13;;;17.40;92.10;;;;;;5056076;28;20025;-73
2023/07/18 02:56:06;;;;;;;4.78;1.08;;;17.40;92.30;;;;;;5056123;28;20036;-73
2023/07/18 02:58:31;;;;;;;3.63;1.25;;;17.30;92.50;;;;;;5055944;28;20116;-73
2023/07/18 03:00:59;;;;;;;3.50;0.82;;;17.20;92.50;;;;;;5055832;28;20155;-73
2023/07/18 03:03:26;;;;;;;7.25;1.42;;;17.30;92.60;;;;;;5055843;28;20086;-73
2023/07/18 03:05:53;;;;;;;6.68;2.15;;;17.30;92.30;;;;;;5038077;28;20393;-73
2023/07/18 03:08:19;;;;;;;6.47;1.27;;;17.30;92.40;;;;;;5055853;28;20104;-74
2023/07/18 03:10:46;;;;;;;2.72;0.90;;;17.10;92.70;;;;;;5056105;28;20088;-73
2023/07/18 03:13:12;;;;;;;7.05;1.33;;;17.10;92.70;;;;;;5055514;28;20036;-73
2023/07/18 03:15:39;;;;;;;2.42;0.85;;;17.20;92.70;;;;;;5055540;28;20100;-74
2023/07/18 03:18:06;;;;;;;4.25;1.10;;;17.20;92.70;;;;;;5055770;28;20021;-72
2023/07/18 03:20:31;;;;;;;7.10;1.30;;;17.00;93.20;;;;;;5055592;28;20052;-75
2023/07/18 03:22:57;;;;;;;4.90;1.15;;;16.90;93.40;;;;;;5037625;28;20069;-74
2023/07/18 03:25:23;;;;;;;4.03;1.20;;;17.00;93.10;;;;;;5037528;28;20021;-73
2023/07/18 03:27:50;;;;;;;6.10;1.38;;;17.00;93.10;;;;;;5055575;28;20029;-75
2023/07/18 03:30:16;;;;;;;4.75;1.40;;;17.10;93.10;;;;;;5055238;28;20017;-74
2023/07/18 03:32:42;;;;;;;5.22;1.00;;;17.20;92.90;;;;;;5055402;28;20033;-73
2023/07/18 03:35:09;;;;;;;4.00;1.27;;;17.10;92.90;;;;;;5055260;28;20044;-73
2023/07/18 03:37:35;;;;;;;8.07;1.27;;;17.10;93.00;;;;;;5055503;28;20424;-73
2023/07/18 03:40:04;;;;;;;3.38;1.20;;;17.00;93.20;;;;;;5055540;28;20092;-73
2023/07/18 03:42:30;;;;;;;4.38;1.20;;;16.90;93.50;;;;;;5055418;28;20029;-74
2023/07/18 03:44:55;;;;;;;5.78;1.42;;;16.90;93.30;;;;;;5054715;28;20033;-73
2023/07/18 03:47:21;;;;;;;4.60;1.48;;;16.90;93.80;;;;;;5055063;28;20035;-73
2023/07/18 03:49:46;;;;;;;5.32;1.38;;;17.00;93.30;;;;;;5037253;28;20021;-74
2023/07/18 03:52:12;;;;;;;6.43;1.58;;;17.00;93.20;;;;;;5037179;28;20385;-73
2023/07/18 03:54:38;;;;;;;4.95;1.58;;;17.00;93.50;;;;;;5037078;28;20025;-74
2023/07/18 03:57:03;;;;;;;5.18;1.42;;;17.00;93.40;;;;;;5055190;28;20200;-74
2023/07/18 03:59:29;;;;;;;7.57;1.50;;;16.90;93.30;;;;;;5054581;28;20481;-74
2023/07/18 04:01:55;;;;;;;4.32;1.63;;;16.90;93.60;;;;;;5054921;28;20021;-73
2023/07/18 04:04:21;;;;;;;3.25;1.20;;;16.90;93.70;;;;;;5036904;28;20055;-73
2023/07/18 04:06:46;;;;;;;6.90;1.70;;;16.80;93.60;;;;;;5054877;28;20021;-74
2023/07/18 04:09:12;;;;;;;3.67;1.40;;;16.90;93.70;;;;;;5054671;28;20083;-73
2023/07/18 04:11:39;;;;;;;8.52;2.15;;;16.70;94.00;;;;;;5054696;28;20032;-75
2023/07/18 04:14:04;;;;;;;5.28;2.40;;;16.70;94.10;;;;;;5054448;28;20466;-73
2023/07/18 04:16:30;;;;;;;5.25;1.65;;;16.70;94.00;;;;;;5054408;28;20025;-73
2023/07/18 04:18:56;;;;;;;6.53;1.67;;;16.60;94.30;;;;;;5054693;28;20025;-73
2023/07/18 04:21:21;;;;;;;5.65;1.90;;;16.60;94.40;;;;;;5054292;28;20032;-73
2023/07/18 04:23:48;;;;;;;7.38;2.15;;;16.50;94.60;;;;;;5054601;28;20025;-73
2023/07/18 04:26:13;;;;;;;6.13;1.58;;;16.50;94.70;;;;;;5036429;28;20021;-73
2023/07/18 04:28:39;;;;;;;4.38;1.83;;;16.60;94.30;;;;;;5054213;28;20062;-74
2023/07/18 04:31:08;;;;;;;4.05;1.30;;;16.60;94.60;;;;;;5054221;28;20025;-74
2023/07/18 04:33:36;;;;;;;4.68;1.27;;;16.50;94.70;;;;;;5054257;28;20025;-74
2023/07/18 04:36:02;;;;;;;4.88;1.55;;;16.60;94.80;;;;;;5054065;28;20043;-75
2023/07/18 04:38:28;;;;;;;5.57;1.60;;;16.50;95.10;;;;;;5054159;28;20052;-73
2023/07/18 04:40:54;;;;;;;8.02;1.55;;;16.40;95.10;;;;;;5054151;28;20032;-73
2023/07/18 04:43:19;;;;;;;10.48;2.28;;;16.50;95.10;;;;;;5053699;28;20033;-73
2023/07/18 04:45:47;;;;;;;7.30;1.55;;;16.60;95.00;;;;;;5053885;28;20359;-73
2023/07/18 04:48:17;;;;;;;9.07;1.55;;;16.60;95.10;;;;;;5054163;28;20017;-74
2023/07/18 04:50:45;;;;;;;7.43;1.60;;;16.50;95.70;;;;;;5053778;28;20540;-73
2023/07/18 04:53:11;;;;;;;6.38;1.75;;;16.60;95.20;;;;;;5054013;28;20033;-72
2023/07/18 04:55:38;;;;;;;6.07;1.90;;;16.70;95.00;;;;;;5053664;28;20031;-73
2023/07/18 04:58:05;;;;;;;5.57;1.88;;;16.80;95.00;;;;;;5053719;28;20028;-73
2023/07/18 05:00:31;;;;;;;4.13;1.70;;;16.80;95.00;;;;;;5056515;28;20025;-74
2023/07/18 05:02:58;;;;;;;5.82;1.80;;;16.80;95.00;;;;;;5073469;28;20064;-73
2023/07/18 05:05:27;;;;;;;10.32;2.05;;;16.80;95.20;;;;;;5072876;28;20108;-73
2023/07/18 05:08:00;;;;;;;9.15;1.73;;;16.70;95.60;;;;;;5072539;28;20017;-73
2023/07/18 05:10:26;;;;;;;6.30;1.80;;;16.80;95.40;;;;;;5073663;28;20028;-73
2023/07/18 05:12:52;;;;;;;7.38;1.70;;;16.70;95.50;;;;;;5055424;28;20021;-74
2023/07/18 05:15:18;;;;;;;5.95;1.65;;;16.70;95.70;;;;;;5055484;28;20050;-73
2023/07/18 05:17:44;;;;;;;5.50;1.60;;;16.70;95.80;;;;;;5073414;28;20107;-74
2023/07/18 05:20:11;;;;;;;6.20;2.00;;;16.70;96.00;;;;;;5073470;28;20056;-72
2023/07/18 05:22:40;;;;;;;6.40;1.75;;;16.70;95.80;;;;;;5073229;28;20039;-73
2023/07/18 05:25:11;;;;;;;6.60;1.80;;;16.70;96.00;;;;;;5073379;28;20039;-73
2023/07/18 05:27:39;;;;;;;7.43;2.38;;;16.70;96.10;;;;;;5072795;28;20025;-72
2023/07/18 05:30:10;;;;;;;4.93;1.48;;;16.80;96.10;;;;;;5073446;28;20024;-73
2023/07/18 05:32:35;;;;;;;8.32;1.77;;;17.00;95.90;;;;;;5073038;28;20078;-73
2023/07/18 05:35:01;;;;;;;4.60;1.60;;;17.10;95.80;;;;;;5073233;28;20028;-73
2023/07/18 05:37:28;;;;;;;7.60;2.08;;;17.20;95.60;;;;;;5073217;28;20032;-73
2023/07/18 05:39:54;;;;;;;7.50;2.05;;;17.30;95.60;;;;;;5055242;28;20056;-73
2023/07/18 05:42:20;;;;;;;5.70;1.83;;;17.30;95.40;;;;;;5072718;28;20071;-73
2023/07/18 05:44:45;;;;;;;7.45;2.10;;;17.40;95.30;;;;;;5073190;28;20078;-73
2023/07/18 05:47:11;;;;;;;4.72;1.83;;;17.30;95.30;;;;;;5072931;28;20024;-73
2023/07/18 05:49:37;;;;;;;7.20;1.75;;;17.40;95.30;;;;;;5073042;28;20032;-74
2023/07/18 05:52:02;;;;;;;5.95;1.75;;;17.40;95.40;;;;;;5072843;28;20063;-73
2023/07/18 05:54:30;;;;;;;9.30;2.33;;;17.40;95.50;;;;;;5073030;28;20112;-73
2023/07/18 05:56:58;;;;;;;6.22;1.85;;;17.50;95.50;;;;;;5072703;28;20021;-74
2023/07/18 05:59:24;;;;;;;9.40;2.38;;;17.60;95.50;;;;;;5073183;28;20124;-73
2023/07/18 06:01:49;;;;;;;10.82;2.50;;;17.70;95.20;;;;;;5072871;28;20028;-74
2023/07/18 06:04:15;;;;;;;8.02;1.67;;;17.80;95.20;;;;;;5073105;28;20037;-74
2023/07/18 06:06:43;;;;;;;7.15;2.30;;;18.00;95.10;;;;;;5054999;28;20104;-73
2023/07/18 06:09:09;;;;;;;9.45;1.95;;;18.10;94.90;;;;;;5072906;28;20093;-73
2023/07/18 06:11:35;;;;;;;7.88;1.92;;;18.20;94.90;;;;;;5072444;28;20428;-74
2023/07/18 06:14:00;;;;;;;7.70;1.75;;;18.30;94.60;;;;;;5072817;28;20044;-73
2023/07/18 06:16:27;;;;;;;5.85;2.00;;;18.40;94.50;;;;;;5073498;28;20079;-74
2023/07/18 06:18:53;;;;;;;8.10;2.22;;;18.50;94.40;;;;;;5076926;28;20069;-74
2023/07/18 06:21:19;;;;;;;6.72;1.75;;;18.60;94.50;;;;;;5076972;28;20538;-74
2023/07/18 06:23:44;;;;;;;9.52;2.05;;;18.70;94.20;;;;;;5076290;28;20119;-74
2023/07/18 06:26:10;;;;;;;8.15;1.58;;;18.80;94.30;;;;;;5076675;28;20036;-74
2023/07/18 06:28:35;;;;;;;8.63;2.40;;;18.80;94.40;;;;;;5058531;28;20031;-74
2023/07/18 06:31:02;;;;;;;7.25;2.35;;;18.90;94.40;;;;;;5076763;28;20476;-74
2023/07/18 06:33:28;;;;;;;6.18;2.00;;;18.90;94.30;;;;;;5076648;28;20016;-74
2023/07/18 06:35:55;;;;;;;9.60;2.20;;;19.00;94.10;;;;;;5076588;28;20025;-74
2023/07/18 06:38:21;;;;;;;5.78;1.95;;;19.10;94.30;;;;;;5076151;28;20024;-74
2023/07/18 06:40:50;;;;;;;7.43;2.17;;;19.20;94.20;;;;;;5076328;28;20466;-74
2023/07/18 06:43:19;;;;;;;6.78;2.15;;;19.20;93.90;;;;;;5076442;28;20036;-75
2023/07/18 06:45:45;;;;;;;8.80;1.75;;;19.30;93.90;;;;;;5076279;28;20048;-75
2023/07/18 06:48:11;;;;;;;7.28;1.67;;;19.40;94.30;;;;;;5076386;28;20020;-74
2023/07/18 06:50:38;;;;;;;6.35;2.00;;;19.40;93.70;;;;;;5075916;28;20111;-75
2023/07/18 06:53:04;;;;;;;9.30;2.60;;;19.40;93.70;;;;;;5075793;28;20032;-74
2023/07/18 06:55:30;;;;;;;8.63;2.33;;;19.50;93.80;;;;;;5076078;28;20074;-74
2023/07/18 06:57:56;;;;;;;6.07;1.48;;;19.50;93.90;;;;;;5076055;28;20024;-75
2023/07/18 07:00:22;;;;;;;11.35;2.20;;;19.60;93.60;;;;;;5076173;28;20423;-75
2023/07/18 07:02:48;;;;;;;7.13;1.98;;;19.70;93.60;;;;;;5075926;28;20043;-75
2023/07/18 07:05:14;;;;;;;6.43;1.63;;;19.80;93.60;;;;;;5075943;28;20016;-75
2023/07/18 07:07:40;;;;;;;9.18;2.00;;;19.90;93.60;;;;;;5075788;28;20021;-75
2023/07/18 07:10:08;;;;;;;24.23;2.88;;;20.00;93.40;;;;;;5075928;28;20025;-74
2023/07/18 07:12:34;;;;;;;7.65;2.08;;;20.00;93.10;;;;;;5075647;28;20466;-75
2023/07/18 07:15:01;;;;;;;5.40;1.50;;;20.10;93.40;;;;;;5057831;28;20029;-75
2023/07/18 07:17:26;;;;;;;6.72;1.35;;;20.20;93.40;;;;;;5075915;28;20020;-75
2023/07/18 07:19:52;;;;;;;8.88;1.48;;;20.20;93.50;;;;;;5075407;28;20025;-75
2023/07/18 07:22:18;;;;;;;5.88;1.45;;;20.30;93.40;;;;;;5057645;28;20044;-75
2023/07/18 07:24:46;;;;;;;3.20;0.85;;;20.40;92.80;;;;;;5075450;28;20067;-74
2023/07/18 07:27:13;;;;;;;3.70;1.02;;;20.50;92.40;;;;;;5075146;28;20020;-74
2023/07/18 07:29:40;;;;;;;3.67;1.33;;;20.50;92.60;;;;;;5075291;28;20380;-74
2023/07/18 07:32:06;;;;;;;5.85;1.70;;;20.50;92.20;;;;;;5057570;28;20055;-74
2023/07/18 07:34:32;;;;;;;7.45;1.10;;;20.60;92.20;;;;;;5075353;28;20019;-75
2023/07/18 07:36:58;;;;;;;3.70;1.40;;;20.70;92.30;;;;;;5075123;28;20095;-74
2023/07/18 07:39:23;;;;;;;3.17;0.43;;;20.70;92.10;;;;;;5075284;28;20033;-74
2023/07/18 07:41:49;;;;;;;3.55;0.70;;;20.80;91.40;;;;;;5057368;28;20528;-74
2023/07/18 07:44:15;;;;;;;7.38;1.40;;;20.80;91.30;;;;;;5075263;28;20086;-75
2023/07/18 07:46:40;;;;;;;3.42;0.73;;;20.90;90.90;;;;;;5057042;28;20090;-74
2023/07/18 07:49:11;;;;;;;4.80;0.80;;;21.00;90.50;;;;;;5075192;28;20033;-75
2023/07/18 07:51:36;;;;;;;4.05;0.98;;;21.00;89.60;;;;;;5074821;28;20028;-73
2023/07/18 07:54:02;;;;;;;5.57;0.88;;;21.00;88.80;;;;;;5075196;28;20077;-76
2023/07/18 07:56:28;;;;;;;7.38;1.23;;;21.00;89.60;;;;;;5075109;28;20028;-74
2023/07/18 07:58:53;;;;;;;3.90;0.77;;;21.10;89.70;;;;;;5075049;28;20058;-74
2023/07/18 08:01:20;;;;;;;2.72;0.65;;;21.20;89.70;;;;;;5074736;28;20081;-74
2023/07/18 08:03:45;;;;;;;3.67;0.80;;;21.20;90.00;;;;;;5074782;28;20115;-75
2023/07/18 08:06:11;;;;;;;4.43;1.20;;;21.20;88.80;;;;;;5074594;28;20565;-74
2023/07/18 08:08:36;;;;;;;5.85;0.70;;;21.30;88.20;;;;;;5074809;28;20107;-75
2023/07/18 08:11:03;;;;;;;5.63;0.90;;;21.30;87.20;;;;;;5074586;28;20029;-74
2023/07/18 08:13:29;;;;;;;4.68;1.17;;;21.40;88.20;;;;;;5074695;28;20393;-74
2023/07/18 08:15:55;;;;;;;4.55;0.80;;;21.40;88.40;;;;;;5074506;28;20021;-74
2023/07/18 08:18:21;;;;;;;3.28;0.50;;;21.50;88.10;;;;;;5074721;28;20024;-75
2023/07/18 08:20:47;;;;;;;4.15;0.98;;;21.50;87.00;;;;;;5074182;28;20033;-74
2023/07/18 08:23:14;;;;;;;3.13;0.50;;;21.60;87.20;;;;;;5073309;28;20099;-74
2023/07/18 08:25:43;;;;;;;4.13;0.65;;;21.70;86.00;;;;;;5074333;28;20020;-74
2023/07/18 08:28:09;;;;;;;2.75;0.40;;;21.70;86.10;;;;;;5056491;28;20503;-74
2023/07/18 08:30:34;;;;;;;2.13;0.30;;;21.70;85.10;;;;;;5074253;28;20017;-74
2023/07/18 08:33:00;;;;;;;3.13;0.43;;;21.80;84.90;;;;;;5074390;28;20106;-74
2023/07/18 08:35:26;;;;;;;1.55;0.40;;;21.80;84.60;;;;;;5074008;28;20024;-75
2023/07/18 08:37:51;;;;;;;1.58;0.30;;;21.90;85.80;;;;;;5074321;28;20024;-75
2023/07/18 08:40:17;;;;;;;4.32;0.50;;;21.90;83.00;;;;;;5073112;28;20025;-74
2023/07/18 08:42:43;;;;;;;7.38;0.60;;;21.90;83.30;;;;;;5074222;28;20040;-73
2023/07/18 08:45:13;;;;;;;1.75;0.47;;;22.00;84.40;;;;;;5073799;28;20393;-73
2023/07/18 08:47:41;;;;;;;4.68;0.60;;;22.00;84.60;;;;;;5073818;28;20473;-74
2023/07/18 08:50:11;;;;;;;5.57;0.75;;;22.00;84.20;;;;;;5073679;28;20389;-74
2023/07/18 08:52:38;;;;;;;4.18;0.40;;;22.10;83.90;;;;;;5073727;28;20103;-74
2023/07/18 08:55:05;;;;;;;7.28;0.52;;;22.10;84.00;;;;;;5073878;28;20107;-74
2023/07/18 08:57:31;;;;;;;3.00;0.28;;;22.10;83.50;;;;;;5073692;28;20023;-74
2023/07/18 09:00:00;;;;;;;4.10;0.43;;;22.10;83.50;;;;;;5055962;28;20020;-74
2023/07/18 09:02:25;;;;;;;4.80;0.40;;;22.20;81.00;;;;;;5073712;28;20095;-74
2023/07/18 09:04:51;;;;;;;2.00;0.38;;;22.20;83.20;;;;;;5073348;28;20474;-74
2023/07/18 09:07:19;;;;;;;1.60;0.40;;;22.20;81.70;;;;;;5073685;28;20024;-74
2023/07/18 09:09:48;;;;;;;2.17;0.47;;;22.20;82.80;;;;;;5073750;28;20052;-74
2023/07/18 09:12:15;;;;;;;1.80;0.50;;;22.30;81.50;;;;;;5073810;28;20028;-73
2023/07/18 09:14:40;;;;;;;3.22;0.30;;;22.30;79.80;;;;;;5055616;28;20031;-73
2023/07/18 09:17:07;;;;;;;2.97;0.65;;;22.40;80.50;;;;;;5073499;28;20039;-73
2023/07/18 09:19:37;;;;;;;1.35;0.20;;;22.40;81.10;;;;;;5073421;28;20107;-75
2023/07/18 09:22:06;;;;;;;7.38;0.43;;;22.40;83.00;;;;;;5073512;28;20587;-73
2023/07/18 09:24:32;;;;;;;1.88;0.30;;;22.40;80.50;;;;;;5073513;28;20056;-73
2023/07/18 09:26:58;;;;;;;0.68;0.20;;;22.50;79.70;;;;;;5073311;28;20029;-73
2023/07/18 09:29:25;;;;;;;1.25;0.30;;;22.50;82.70;;;;;;5073306;28;20469;-73
2023/07/18 09:31:51;;;;;;;2.95;0.38;;;22.50;80.50;;;;;;5073384;28;20028;-73
2023/07/18 09:34:18;;;;;;;2.50;0.30;;;22.50;76.70;;;;;;5055131;28;20104;-74
2023/07/18 09:36:58;;;;;;;1.75;0.30;;;22.50;79.10;;;;;;5073225;28;20489;-74
2023/07/18 09:39:27;;;;;;;3.42;0.45;;;22.50;80.60;;;;;;5073207;28;20017;-74
2023/07/18 09:41:54;;;;;;;3.08;0.55;;;22.50;77.50;;;;;;5073111;28;20069;-73
2023/07/18 09:44:21;;;;;;;2.45;0.45;;;22.50;75.90;;;;;;5073320;28;20032;-74
2023/07/18 09:46:49;;;;;;;0.82;0.20;;;22.50;75.70;;;;;;5072666;28;20477;-73
2023/07/18 09:49:16;;;;;;;2.90;0.55;;;22.50;78.10;;;;;;5073311;28;20105;-73
2023/07/18 09:51:49;;;;;;;2.15;0.43;;;22.50;77.80;;;;;;5072594;28;20026;-73
2023/07/18 09:54:16;;;;;;;2.15;0.35;;;22.50;77.20;;;;;;5073331;28;20143;-74
2023/07/18 09:56:44;;;;;;;2.42;0.47;;;22.60;77.10;;;;;;5073021;28;20070;-74
2023/07/18 09:59:10;;;;;;;2.50;0.20;;;22.60;76.00;;;;;;5073214;28;20016;-74
2023/07/18 10:01:37;;;;;;;1.95;0.50;;;22.60;77.60;;;;;;5054837;28;20029;-73
2023/07/18 10:04:03;;;;;;;3.13;0.50;;;22.70;79.90;;;;;;5072976;28;20473;-74
2023/07/18 10:06:31;;;;;;;1.33;0.35;;;22.70;78.90;;;;;;5054928;28;20074;-74
2023/07/18 10:08:58;;;;;;;3.90;0.40;;;22.80;81.40;;;;;;5072892;28;20032;-75
2023/07/18 10:11:23;;;;;;;1.90;0.10;;;22.80;77.70;;;;;;5073029;28;20021;-74
2023/07/18 10:13:55;;;;;;;2.67;0.17;;;22.80;75.50;;;;;;5072814;28;20066;-74
2023/07/18 10:16:21;;;;;;;3.95;0.60;;;22.80;76.90;;;;;;5072572;28;20056;-73
2023/07/18 10:18:51;;;;;;;1.80;0.40;;;22.80;75.20;;;;;;5072769;28;20091;-73
2023/07/18 10:21:43;;;;;;;2.17;0.40;;;22.80;75.20;;;;;;5072808;28;20104;-73
2023/07/18 10:24:24;;;;;;;2.35;0.40;;;22.80;76.60;;;;;;5072398;28;20488;-73
2023/07/18 10:26:57;;;;;;;3.38;0.40;;;22.90;76.70;;;;;;5072842;28;20017;-73
2023/07/18 10:29:23;;;;;;;1.70;0.40;;;22.90;76.40;;;;;;5072477;28;20462;-73
2023/07/18 10:31:48;;;;;;;3.75;0.25;;;22.90;78.30;;;;;;5072494;28;20078;-73
2023/07/18 10:34:18;;;;;;;1.95;0.70;;;22.90;79.90;;;;;;5072573;28;20093;-73
2023/07/18 10:37:00;;;;;;;2.05;0.30;;;23.00;77.50;;;;;;5072772;28;20021;-74
2023/07/18 10:39:38;;;;;;;;;;;23.10;78.10;;;;;;5072958;28;20024;-74
2023/07/18 10:42:20;;;;;;;2.33;0.45;;;23.00;76.50;;;;;;5072481;28;19961;-74
2023/07/18 10:44:53;;;;;;;0.70;0.10;;;23.00;79.10;;;;;;5072150;28;20094;-74
2023/07/18 10:47:19;;;;;;;2.08;0.25;;;23.00;77.90;;;;;;5072574;28;20024;-74
2023/07/18 10:49:47;;;;;;;1.23;0.15;;;23.10;77.60;;;;;;5072532;28;20040;-75
2023/07/18 10:52:13;;;;;;;0.98;0.25;;;23.00;77.40;;;;;;5072378;28;20102;-74
2023/07/18 10:54:54;;;;;;;1.45;0.30;;;23.20;73.90;;;;;;5072221;28;20032;-73
2023/07/18 10:57:38;;;;;;;1.30;0.20;;;23.10;68.80;;;;;;5072465;28;20028;-74
2023/07/18 11:00:06;;;;;;;1.13;0.10;;;23.20;77.00;;;;;;5072057;28;20024;-74
2023/07/18 11:02:37;;;;;;;0.88;0.20;;;23.20;73.00;;;;;;5073007;28;20028;-74
2023/07/18 11:05:11;;;;;;;0.90;0.10;;;23.20;78.00;;;;;;5075827;28;20073;-74
2023/07/18 11:07:41;;;;;;;1.55;0.30;;;23.20;77.60;;;;;;5075978;28;20108;-73
2023/07/18 11:10:10;;;;;;;1.02;0.10;;;23.20;72.30;;;;;;5075953;28;20020;-73
2023/07/18 11:12:36;;;;;;;2.55;0.30;;;23.30;78.40;;;;;;5076126;28;20021;-75
2023/07/18 11:15:06;;;;;;;1.67;0.30;;;23.30;70.50;;;;;;5075459;28;20033;-73
2023/07/18 11:17:32;;;;;;;1.45;0.20;;;23.20;69.70;;;;;;5075902;28;20021;-73
2023/07/18 11:19:58;;;;;;;1.77;0.20;;;23.20;69.00;;;;;;5075703;28;20036;-74
2023/07/18 11:22:24;;;;;;;1.35;0.10;;;23.30;75.00;;;;;;5075701;28;20036;-74
2023/07/18 11:24:51;;;;;;;1.20;0.30;;;23.30;75.70;;;;;;5075475;28;20112;-73
2023/07/18 11:27:17;;;;;;;1.13;0.30;;;23.40;77.80;;;;;;5075661;28;20473;-74
2023/07/18 11:30:09;;;;;;;1.15;0.28;;;23.30;73.40;;;;;;5075139;28;20020;-73
2023/07/18 11:32:43;;;;;;;1.30;0.35;;;23.40;72.40;;;;;;5075809;28;20445;-75
2023/07/18 11:35:19;;;;;;;1.85;0.20;;;23.30;75.80;;;;;;5075307;28;20036;-73
2023/07/18 11:37:46;;;;;;;1.42;0.30;;;23.40;74.10;;;;;;5075564;28;20035;-74
2023/07/18 11:40:19;;;;;;;1.83;0.10;;;23.40;77.60;;;;;;5057381;28;20021;-75
2023/07/18 11:42:47;;;;;;;0.80;0.35;;;23.40;70.50;;;;;;5075245;28;20032;-73
2023/07/18 11:45:15;;;;;;;2.53;0.52;;;23.40;70.00;;;;;;5075148;28;20517;-72
2023/07/18 11:47:47;;;;;;;0.88;0.43;;;23.40;70.30;;;;;;5075318;28;20024;-73
2023/07/18 11:50:14;;;;;;;1.25;0.25;;;23.40;72.00;;;;;;5075024;28;20032;-73
2023/07/18 11:52:45;;;;;;;2.95;0.40;;;23.50;68.90;;;;;;5075178;28;20032;-73
2023/07/18 11:55:11;;;;;;;0.55;0.20;;;23.50;67.20;;;;;;5074943;28;20077;-73
2023/07/18 11:57:36;;;;;;;1.33;0.20;;;23.40;73.40;;;;;;5074938;28;20419;-74
2023/07/18 12:00:03;;;;;;;0.50;0.10;;;23.50;76.00;;;;;;5074875;28;20027;-74
2023/07/18 12:02:29;;;;;;;0.77;0.20;;;23.60;76.40;;;;;;5074997;28;20020;-73
2023/07/18 12:04:55;;;;;;;2.22;0.10;;;23.60;76.20;;;;;;5074785;28;20385;-74
2023/07/18 12:07:20;;;;;;;1.13;0.20;;;23.70;74.90;;;;;;5074948;28;20020;-74
2023/07/18 12:09:46;;;;;;;1.08;0.30;;;23.60;76.30;;;;;;5074601;28;20358;-74
2023/07/18 12:12:11;;;;;;;1.33;0.40;;;23.70;76.00;;;;;;5074533;28;20117;-73
2023/07/18 12:14:37;;;;;;;1.42;0.20;;;23.60;65.00;;;;;;5074512;28;20037;-75
2023/07/18 12:17:02;;;;;;;1.27;0.43;;;23.60;71.10;;;;;;5074617;28;20021;-73
2023/07/18 12:19:28;;;;;;;1.58;0.20;;;23.60;72.30;;;;;;5074619;28;20103;-73
2023/07/18 12:21:53;;;;;;;1.90;0.50;;;23.60;70.40;;;;;;5074341;28;20031;-73
2023/07/18 12:24:19;;;;;;;0.88;0.20;;;23.60;65.90;;;;;;5074541;28;20119;-74
2023/07/18 12:26:45;;;;;;;0.77;0.22;;;23.60;75.40;;;;;;5074121;28;20016;-75
2023/07/18 12:29:15;;;;;;;1.10;0.30;;;23.60;70.10;;;;;;5074314;28;20025;-74
2023/07/18 12:31:51;;;;;;;1.55;0.50;;;23.60;63.60;;;;;;5074301;28;20047;-73
2023/07/18 12:34:20;;;;;;;0.93;0.22;;;23.60;72.90;;;;;;5074185;28;20469;-73
2023/07/18 12:36:46;;;;;;;1.25;0.30;;;23.60;72.60;;;;;;5074148;28;20055;-74
2023/07/18 12:39:13;;;;;;;0.90;0.30;;;23.60;70.90;;;;;;5074166;28;20074;-74
2023/07/18 12:41:38;;;;;;;1.65;0.50;;;23.60;66.90;;;;;;5073772;28;20458;-73
2023/07/18 12:44:04;;;;;;;1.50;0.28;;;23.50;65.40;;;;;;5074049;28;20044;-73
2023/07/18 12:46:30;;;;;;;0.50;0.10;;;23.60;71.10;;;;;;5073818;28;20378;-73